createdAt,value
2022-10-18T00:00:15.136Z,0.30
2022-10-18T00:02:42.691Z,0.30
2022-10-18T00:05:10.150Z,0.40
2022-10-18T00:07:37.782Z,0.30
2022-10-18T00:10:07.334Z,0.30
2022-10-18T00:12:35.470Z,0.30
2022-10-18T00:15:03.353Z,0.30
2022-10-18T00:17:31.015Z,0.38
2022-10-18T00:19:58.693Z,0.32
2022-10-18T00:22:26.291Z,0.40
2022-10-18T00:24:53.839Z,0.50
2022-10-18T00:27:22.669Z,0.35
2022-10-18T00:29:53.447Z,0.30
2022-10-18T00:32:20.964Z,0.40
2022-10-18T00:34:48.552Z,0.30
2022-10-18T00:37:16.036Z,0.30
2022-10-18T00:39:43.652Z,0.30
2022-10-18T00:42:12.284Z,0.38
2022-10-18T00:44:58.520Z,0.30
2022-10-18T00:47:27.425Z,0.40
2022-10-18T00:49:56.641Z,0.30
2022-10-18T00:52:26.021Z,0.38
2022-10-18T00:54:54.137Z,0.32
2022-10-18T00:57:21.754Z,0.40
2022-10-18T00:59:49.278Z,0.40
2022-10-18T01:02:18.222Z,0.40
2022-10-18T01:04:47.330Z,0.40
2022-10-18T01:07:20.663Z,0.30
2022-10-18T01:09:49.318Z,0.40
2022-10-18T01:12:22.109Z,0.45
2022-10-18T01:14:53.759Z,0.30
2022-10-18T01:17:28.401Z,0.50
2022-10-18T01:20:13.666Z,0.40
2022-10-18T01:22:44.485Z,0.40
2022-10-18T01:25:21.158Z,0.40
2022-10-18T01:27:51.370Z,0.40
2022-10-18T01:30:33.687Z,0.40
2022-10-18T01:33:04.643Z,0.40
2022-10-18T01:35:34.794Z,0.40
2022-10-18T01:38:03.806Z,0.30
2022-10-18T01:40:31.899Z,0.30
2022-10-18T01:42:59.392Z,0.30
2022-10-18T01:45:26.871Z,0.38
2022-10-18T01:47:55.256Z,0.40
2022-10-18T01:50:30.719Z,0.40
2022-10-18T01:52:58.310Z,0.43
2022-10-18T01:55:27.875Z,0.40
2022-10-18T01:58:00.335Z,0.40
2022-10-18T02:00:32.707Z,0.40
2022-10-18T02:03:04.202Z,0.32
2022-10-18T02:05:36.471Z,0.40
2022-10-18T02:08:18.987Z,0.40
2022-10-18T02:10:51.452Z,0.30
2022-10-18T02:13:21.120Z,0.30
2022-10-18T02:15:50.096Z,0.30
2022-10-18T02:18:19.345Z,0.50
2022-10-18T02:20:49.369Z,0.32
2022-10-18T02:23:19.705Z,0.30
2022-10-18T02:25:47.197Z,0.30
2022-10-18T02:28:14.715Z,0.40
2022-10-18T02:30:45.438Z,0.50
2022-10-18T02:33:16.251Z,0.40
2022-10-18T02:35:46.618Z,0.40
2022-10-18T02:38:16.274Z,0.40
2022-10-18T02:40:43.807Z,0.50
2022-10-18T02:43:11.322Z,0.40
2022-10-18T02:45:38.778Z,0.40
2022-10-18T02:48:06.410Z,0.45
2022-10-18T02:50:33.842Z,0.30
2022-10-18T02:53:01.271Z,0.40
2022-10-18T02:55:30.120Z,0.40
2022-10-18T02:57:57.596Z,0.50
2022-10-18T03:00:25.011Z,0.40
2022-10-18T03:02:53.743Z,0.43
2022-10-18T03:05:21.222Z,0.40
2022-10-18T03:07:48.679Z,0.40
2022-10-18T03:10:16.132Z,0.50
2022-10-18T03:12:44.945Z,0.40
2022-10-18T03:15:12.383Z,0.50
2022-10-18T03:17:39.831Z,0.40
2022-10-18T03:20:07.791Z,0.30
2022-10-18T03:22:35.247Z,0.50
2022-10-18T03:25:02.709Z,0.40
2022-10-18T03:27:30.467Z,0.40
2022-10-18T03:30:00.886Z,0.40
2022-10-18T03:32:28.479Z,0.30
2022-10-18T03:34:56.011Z,0.40
2022-10-18T03:37:23.460Z,0.40
2022-10-18T03:39:50.896Z,0.40
2022-10-18T03:42:18.443Z,0.40
2022-10-18T03:44:46.060Z,0.40
2022-10-18T03:47:14.858Z,0.40
2022-10-18T03:49:42.254Z,0.40
2022-10-18T03:52:09.758Z,0.40
2022-10-18T03:54:37.193Z,0.40
2022-10-18T03:57:05.102Z,0.32
2022-10-18T03:59:32.521Z,0.40
2022-10-18T04:02:00.017Z,0.40
2022-10-18T04:04:30.289Z,0.30
2022-10-18T04:06:57.853Z,0.40
2022-10-18T04:09:25.279Z,0.40
2022-10-18T04:11:52.707Z,0.40
2022-10-18T04:14:21.274Z,0.30
2022-10-18T04:16:48.831Z,0.40
2022-10-18T04:19:16.370Z,0.40
2022-10-18T04:21:45.326Z,0.38
2022-10-18T04:24:12.827Z,0.47
2022-10-18T04:26:40.370Z,0.40
2022-10-18T04:29:07.895Z,0.40
2022-10-18T04:31:35.347Z,0.40
2022-10-18T04:34:04.278Z,0.40
2022-10-18T04:36:31.915Z,0.30
2022-10-18T04:39:00.763Z,0.40
2022-10-18T04:41:28.506Z,0.30
2022-10-18T04:43:55.982Z,0.40
2022-10-18T04:46:23.448Z,0.40
2022-10-18T04:48:50.918Z,0.30
2022-10-18T04:51:18.361Z,0.40
2022-10-18T04:53:45.855Z,0.30
2022-10-18T04:56:14.674Z,0.30
2022-10-18T04:58:42.118Z,0.40
2022-10-18T05:01:09.631Z,0.40
2022-10-18T05:03:38.712Z,0.50
2022-10-18T05:06:06.599Z,0.40
2022-10-18T05:08:35.487Z,0.30
2022-10-18T05:11:03.261Z,0.40
2022-10-18T05:13:32.141Z,0.40
2022-10-18T05:16:00.641Z,0.50
2022-10-18T05:18:28.117Z,0.40
2022-10-18T05:20:59.042Z,0.40
2022-10-18T05:23:26.663Z,0.30
2022-10-18T05:25:55.030Z,0.40
2022-10-18T05:28:41.012Z,0.50
2022-10-18T05:31:11.001Z,0.43
2022-10-18T05:33:38.504Z,0.40
2022-10-18T05:36:06.161Z,0.40
2022-10-18T05:38:33.742Z,0.47
2022-10-18T05:41:05.308Z,0.40
2022-10-18T05:43:32.782Z,0.40
2022-10-18T05:46:00.290Z,0.40
2022-10-18T05:48:29.063Z,0.40
2022-10-18T05:50:58.522Z,0.40
2022-10-18T05:53:36.182Z,0.30
2022-10-18T05:56:04.628Z,0.40
2022-10-18T05:58:32.160Z,0.30
2022-10-18T06:01:00.737Z,0.30
2022-10-18T06:03:30.598Z,0.30
2022-10-18T06:06:00.185Z,0.35
2022-10-18T06:08:27.704Z,0.30
2022-10-18T06:10:55.475Z,0.22
2022-10-18T06:13:23.180Z,0.22
2022-10-18T06:15:50.666Z,0.20
2022-10-18T06:18:18.111Z,0.20
2022-10-18T06:20:46.887Z,0.20
2022-10-18T06:23:14.378Z,0.10
2022-10-18T06:25:41.779Z,0.20
2022-10-18T06:28:12.899Z,0.30
2022-10-18T06:30:40.492Z,0.20
2022-10-18T06:33:07.971Z,0.28
2022-10-18T06:35:35.422Z,0.30
2022-10-18T06:38:04.444Z,0.20
2022-10-18T06:40:37.651Z,0.20
2022-10-18T06:43:20.059Z,0.20
2022-10-18T06:45:47.929Z,0.20
2022-10-18T06:48:15.547Z,0.20
2022-10-18T06:50:43.111Z,0.10
2022-10-18T06:53:11.954Z,0.10
2022-10-18T06:55:39.711Z,0.10
2022-10-18T06:58:07.189Z,0.10
2022-10-18T07:00:34.679Z,0.10
2022-10-18T07:03:02.298Z,0.20
2022-10-18T07:05:30.042Z,0.20
2022-10-18T07:07:57.479Z,0.10
2022-10-18T07:10:26.412Z,0.20
2022-10-18T07:13:07.944Z,0.20
2022-10-18T07:15:41.267Z,0.10
2022-10-18T07:18:08.856Z,0.13
2022-10-18T07:20:36.284Z,0.10
2022-10-18T07:23:05.533Z,0.10
2022-10-18T07:25:34.540Z,0.10
2022-10-18T07:28:02.002Z,0.20
2022-10-18T07:30:30.680Z,0.30
2022-10-18T07:32:58.110Z,0.20
2022-10-18T07:35:25.564Z,0.20
2022-10-18T07:37:53.011Z,0.20
2022-10-18T07:40:20.463Z,0.30
2022-10-18T07:42:49.272Z,0.38
2022-10-18T07:45:16.781Z,0.20
2022-10-18T07:47:44.262Z,0.20
2022-10-18T07:50:11.730Z,0.30
2022-10-18T07:52:39.217Z,0.30
2022-10-18T07:55:06.909Z,0.20
2022-10-18T07:57:34.781Z,0.30
2022-10-18T08:00:04.036Z,0.20
2022-10-18T08:02:39.061Z,0.20
2022-10-18T08:05:06.693Z,0.10
2022-10-18T08:07:34.713Z,0.30
2022-10-18T08:10:02.645Z,0.20
2022-10-18T08:12:30.054Z,0.10
2022-10-18T08:14:57.568Z,0.20
2022-10-18T08:17:26.342Z,0.10
2022-10-18T08:20:11.427Z,0.10
2022-10-18T08:22:41.291Z,0.10
2022-10-18T08:25:09.238Z,0.03
2022-10-18T08:27:36.666Z,0.10
2022-10-18T08:30:04.291Z,0.00
2022-10-18T08:32:33.411Z,0.00
2022-10-18T08:35:02.332Z,0.10
2022-10-18T08:37:32.313Z,0.00
2022-10-18T08:40:00.024Z,0.00
2022-10-18T08:42:38.520Z,0.00
2022-10-18T08:45:12.717Z,0.00
2022-10-18T08:47:53.775Z,0.00
2022-10-18T08:50:22.741Z,0.00
2022-10-18T08:52:52.327Z,0.00
2022-10-18T08:55:22.898Z,0.10
2022-10-18T08:57:51.497Z,0.10
2022-10-18T09:00:19.811Z,0.00
2022-10-18T09:02:52.889Z,0.10
2022-10-18T09:05:25.863Z,0.00
2022-10-18T09:08:09.557Z,0.10
2022-10-18T09:10:43.289Z,0.10
2022-10-18T09:13:19.435Z,0.10
2022-10-18T09:15:50.385Z,0.10
2022-10-18T09:18:27.889Z,0.10
2022-10-18T09:20:57.979Z,0.10
2022-10-18T09:23:31.312Z,0.10
2022-10-18T09:26:01.840Z,0.17
2022-10-18T09:28:36.242Z,0.10
2022-10-18T09:31:06.245Z,0.10
2022-10-18T09:33:43.983Z,0.10
2022-10-18T09:36:16.805Z,0.10
2022-10-18T09:38:45.433Z,0.10
2022-10-18T09:41:16.241Z,0.10
2022-10-18T09:43:48.507Z,0.10
2022-10-18T09:46:16.626Z,0.10
2022-10-18T09:48:46.879Z,0.20
2022-10-18T09:51:21.720Z,0.20
2022-10-18T09:53:56.836Z,0.15
2022-10-18T09:56:26.390Z,0.20
2022-10-18T09:58:53.853Z,0.10
2022-10-18T10:01:24.566Z,0.10
2022-10-18T10:03:52.306Z,0.10
2022-10-18T10:06:27.920Z,0.10
2022-10-18T10:08:58.204Z,0.17
2022-10-18T10:11:45.301Z,0.10
2022-10-18T10:16:50.983Z,0.20
2022-10-18T10:19:19.641Z,0.20
2022-10-18T10:21:49.736Z,0.10
2022-10-18T10:24:24.139Z,0.10
2022-10-18T10:27:00.136Z,0.10
2022-10-18T10:29:46.361Z,0.10
2022-10-18T10:32:14.303Z,0.10
2022-10-18T10:34:44.640Z,0.10
2022-10-18T10:37:24.700Z,0.10
2022-10-18T10:40:23.955Z,0.10
2022-10-18T10:43:08.798Z,0.10
2022-10-18T10:45:57.186Z,0.20
2022-10-18T10:48:25.756Z,0.10
2022-10-18T10:50:57.670Z,0.10
2022-10-18T10:53:35.338Z,0.10
2022-10-18T10:56:03.093Z,0.10
2022-10-18T10:58:34.700Z,0.10
2022-10-18T11:01:17.373Z,0.20
2022-10-18T11:03:47.244Z,0.20
2022-10-18T11:06:28.266Z,0.10
2022-10-18T11:08:59.113Z,0.10
2022-10-18T11:11:30.606Z,0.10
2022-10-18T11:14:24.272Z,0.10
2022-10-18T11:16:52.447Z,0.10
2022-10-18T11:19:29.015Z,0.10
2022-10-18T11:21:57.550Z,0.10
2022-10-18T11:24:26.581Z,0.10
2022-10-18T11:26:59.338Z,0.10
2022-10-18T11:29:31.234Z,0.10
2022-10-18T11:32:04.219Z,0.10
2022-10-18T11:34:44.518Z,0.10
2022-10-18T11:37:32.130Z,0.10
2022-10-18T11:40:08.722Z,0.10
2022-10-18T11:42:40.260Z,0.15
2022-10-18T11:45:12.887Z,0.10
2022-10-18T11:47:44.396Z,0.10
2022-10-18T11:50:18.971Z,0.10
2022-10-18T11:52:51.383Z,0.10
2022-10-18T11:55:33.247Z,0.10
2022-10-18T11:58:04.960Z,0.10
2022-10-18T12:00:39.490Z,0.20
2022-10-18T12:03:16.036Z,0.10
2022-10-18T12:05:44.736Z,0.10
2022-10-18T12:08:13.876Z,0.10
2022-10-18T12:11:08.541Z,0.17
2022-10-18T12:13:39.927Z,0.10
2022-10-18T12:16:08.362Z,0.10
2022-10-18T12:18:37.026Z,0.10
2022-10-18T12:21:06.121Z,0.10
2022-10-18T12:23:37.630Z,0.10
2022-10-18T12:26:07.558Z,0.10
2022-10-18T12:28:39.373Z,0.10
2022-10-18T12:31:08.803Z,0.10
2022-10-18T12:33:38.823Z,0.10
2022-10-18T12:36:09.790Z,0.10
2022-10-18T12:38:38.974Z,0.10
2022-10-18T12:41:07.834Z,0.10
2022-10-18T12:43:37.593Z,0.10
2022-10-18T12:46:10.759Z,0.10
2022-10-18T12:48:42.549Z,0.10
2022-10-18T12:51:14.840Z,0.10
2022-10-18T12:53:44.864Z,0.10
2022-10-18T12:56:30.902Z,0.10
2022-10-18T13:02:07.623Z,0.10
2022-10-18T13:04:38.179Z,0.10
2022-10-18T13:07:22.480Z,0.10
2022-10-18T13:10:08.512Z,0.15
2022-10-18T13:12:48.024Z,0.10
2022-10-18T13:15:31.052Z,0.20
2022-10-18T13:18:01.356Z,0.10
2022-10-18T13:20:32.104Z,0.10
2022-10-18T13:23:04.983Z,0.10
2022-10-18T13:25:36.480Z,0.20
2022-10-18T13:28:15.008Z,0.10
2022-10-18T13:30:51.674Z,0.10
2022-10-18T13:33:31.257Z,0.10
2022-10-18T13:36:00.582Z,0.10
2022-10-18T13:38:37.393Z,0.10
2022-10-18T13:41:05.889Z,0.10
2022-10-18T13:43:52.441Z,0.20
2022-10-18T13:46:20.426Z,0.10
2022-10-18T13:48:49.115Z,0.10
2022-10-18T13:51:37.699Z,0.10
2022-10-18T13:54:13.207Z,0.08
2022-10-18T13:56:47.194Z,0.10
2022-10-18T13:59:22.541Z,0.10
2022-10-18T14:01:57.230Z,0.10
2022-10-18T14:05:24.058Z,0.10
2022-10-18T14:08:20.082Z,0.10
2022-10-18T14:11:02.399Z,0.10
2022-10-18T14:13:34.971Z,0.10
2022-10-18T14:16:06.949Z,0.10
2022-10-18T14:18:35.687Z,0.20
2022-10-18T14:21:14.239Z,0.13
2022-10-18T14:23:44.427Z,0.10
2022-10-18T14:26:15.634Z,0.20
2022-10-18T14:29:00.086Z,0.20
2022-10-18T14:31:28.109Z,0.13
2022-10-18T14:33:58.276Z,0.20
2022-10-18T14:36:26.759Z,0.13
2022-10-18T14:38:56.051Z,0.10
2022-10-18T14:41:25.785Z,0.10
2022-10-18T14:43:54.048Z,0.10
2022-10-18T14:46:25.852Z,0.10
2022-10-18T14:48:54.497Z,0.10
2022-10-18T14:51:22.128Z,0.10
2022-10-18T14:53:50.103Z,0.20
2022-10-18T14:56:22.586Z,0.20
2022-10-18T14:58:52.268Z,0.20
2022-10-18T15:01:21.328Z,0.20
2022-10-18T15:03:49.255Z,0.10
2022-10-18T15:06:17.773Z,0.20
2022-10-18T15:08:45.582Z,0.20
2022-10-18T15:11:14.701Z,0.20
2022-10-18T15:13:45.707Z,0.20
2022-10-18T15:16:16.619Z,0.10
2022-10-18T15:18:44.278Z,0.20
2022-10-18T15:21:21.119Z,0.10
2022-10-18T15:23:49.950Z,0.20
2022-10-18T15:26:21.655Z,0.10
2022-10-18T15:28:52.285Z,0.20
2022-10-18T15:31:24.923Z,0.20
2022-10-18T15:33:52.679Z,0.13
2022-10-18T15:36:24.088Z,0.20
2022-10-18T15:38:51.719Z,0.10
2022-10-18T15:41:38.929Z,0.20
2022-10-18T15:44:19.004Z,0.20
2022-10-18T15:46:48.541Z,0.10
2022-10-18T15:49:34.820Z,0.10
2022-10-18T15:52:30.763Z,0.20
2022-10-18T15:55:06.808Z,0.20
2022-10-18T15:57:34.550Z,0.20
2022-10-18T16:00:05.129Z,0.20
2022-10-18T16:02:40.700Z,0.20
2022-10-18T16:05:16.607Z,0.20
2022-10-18T16:07:44.251Z,0.20
2022-10-18T16:10:13.657Z,0.20
2022-10-18T16:12:41.380Z,0.20
2022-10-18T16:15:09.328Z,0.30
2022-10-18T16:17:36.975Z,0.10
2022-10-18T16:20:06.378Z,0.10
2022-10-18T16:22:36.889Z,0.22
2022-10-18T16:25:05.152Z,0.20
2022-10-18T16:27:32.562Z,0.20
2022-10-18T16:30:00.249Z,0.10
2022-10-18T16:32:27.685Z,0.28
2022-10-18T16:34:55.168Z,0.20
2022-10-18T16:37:24.014Z,0.20
2022-10-18T16:39:51.559Z,0.20
2022-10-18T16:42:19.301Z,0.28
2022-10-18T16:44:47.823Z,0.20
2022-10-18T16:47:15.548Z,0.20
2022-10-18T16:49:45.084Z,0.20
2022-10-18T16:52:12.799Z,0.20
2022-10-18T16:54:42.148Z,0.20
2022-10-18T16:57:12.560Z,0.20
2022-10-18T16:59:40.100Z,0.20
2022-10-18T17:02:09.247Z,0.10
2022-10-18T17:04:36.880Z,0.20
2022-10-18T17:07:05.149Z,0.20
2022-10-18T17:09:34.759Z,0.20
2022-10-18T17:12:03.636Z,0.20
2022-10-18T17:14:33.224Z,0.25
2022-10-18T17:17:00.708Z,0.20
2022-10-18T17:19:28.189Z,0.20
2022-10-18T17:22:00.145Z,0.20
2022-10-18T17:24:29.906Z,0.30
2022-10-18T17:27:24.002Z,0.30
2022-10-18T17:29:51.746Z,0.20
2022-10-18T17:32:19.346Z,0.20
2022-10-18T17:34:52.233Z,0.30
2022-10-18T17:37:19.686Z,0.20
2022-10-18T17:39:47.367Z,0.30
2022-10-18T17:42:14.819Z,0.20
2022-10-18T17:44:44.006Z,0.30
2022-10-18T17:47:11.430Z,0.30
2022-10-18T17:49:39.075Z,0.30
2022-10-18T17:52:07.038Z,0.20
2022-10-18T17:54:34.666Z,0.20
2022-10-18T17:57:02.131Z,0.30
2022-10-18T17:59:29.818Z,0.22
2022-10-18T18:01:58.675Z,0.20
2022-10-18T18:04:26.171Z,0.20
2022-10-18T18:06:53.990Z,0.30
2022-10-18T18:09:21.859Z,0.20
2022-10-18T18:11:49.569Z,0.20
2022-10-18T18:14:17.123Z,0.30
2022-10-18T18:16:46.072Z,0.22
2022-10-18T18:19:15.280Z,0.20
2022-10-18T18:21:45.795Z,0.30
2022-10-18T18:24:13.927Z,0.20
2022-10-18T18:26:41.571Z,0.20
2022-10-18T18:29:09.607Z,0.22
2022-10-18T18:31:40.059Z,0.20
2022-10-18T18:34:10.276Z,0.20
2022-10-18T18:39:35.269Z,0.30
2022-10-18T18:42:03.700Z,0.20
2022-10-18T18:44:32.194Z,0.30
2022-10-18T18:47:02.455Z,0.28
2022-10-18T18:49:31.495Z,0.20
2022-10-18T18:52:00.430Z,0.20
2022-10-18T18:54:29.753Z,0.20
2022-10-18T18:56:57.941Z,0.20
2022-10-18T18:59:25.697Z,0.20
2022-10-18T19:01:53.460Z,0.28
2022-10-18T19:04:21.086Z,0.20
2022-10-18T19:06:48.525Z,0.30
2022-10-18T19:09:21.614Z,0.30
2022-10-18T19:11:50.086Z,0.20
2022-10-18T19:14:17.745Z,0.20
2022-10-18T19:16:47.455Z,0.30
2022-10-18T19:19:16.067Z,0.20
2022-10-18T19:21:49.024Z,0.20
2022-10-18T19:24:18.087Z,0.30
2022-10-18T19:26:47.266Z,0.30
2022-10-18T19:29:15.559Z,0.30
2022-10-18T19:31:43.704Z,0.30
2022-10-18T19:34:36.323Z,0.20
2022-10-18T19:37:03.952Z,0.20
2022-10-18T19:39:33.834Z,0.20
2022-10-18T19:42:03.112Z,0.20
2022-10-18T19:44:31.370Z,0.30
2022-10-18T19:46:59.367Z,0.30
2022-10-18T19:49:28.552Z,0.20
2022-10-18T19:51:56.405Z,0.30
2022-10-18T19:54:24.387Z,0.30
2022-10-18T19:56:53.492Z,0.20
2022-10-18T19:59:21.205Z,0.30
2022-10-18T20:01:48.810Z,0.20
2022-10-18T20:04:16.718Z,0.20
2022-10-18T20:06:44.758Z,0.30
2022-10-18T20:09:14.841Z,0.20
2022-10-18T20:11:45.537Z,0.30
2022-10-18T20:14:14.337Z,0.20
2022-10-18T20:16:41.781Z,0.30
2022-10-18T20:19:09.465Z,0.30
2022-10-18T20:21:37.318Z,0.30
2022-10-18T20:24:05.505Z,0.30
2022-10-18T20:26:33.195Z,0.30
2022-10-18T20:29:00.749Z,0.20
2022-10-18T20:31:30.875Z,0.20
2022-10-18T20:33:58.952Z,0.30
2022-10-18T20:36:27.178Z,0.20
2022-10-18T20:38:54.985Z,0.20
2022-10-18T20:41:23.887Z,0.30
2022-10-18T20:43:51.610Z,0.30
2022-10-18T20:46:19.034Z,0.30
2022-10-18T20:48:48.127Z,0.20
2022-10-18T20:51:16.212Z,0.20
2022-10-18T20:53:43.718Z,0.30
2022-10-18T20:56:12.463Z,0.30
2022-10-18T20:58:41.091Z,0.30
2022-10-18T21:01:08.888Z,0.30
2022-10-18T21:03:37.336Z,0.30
2022-10-18T21:06:10.472Z,0.30
2022-10-18T21:08:38.296Z,0.30
2022-10-18T21:11:06.068Z,0.30
2022-10-18T21:13:33.971Z,0.30
2022-10-18T21:16:01.850Z,0.20
2022-10-18T21:18:30.044Z,0.30
2022-10-18T21:21:07.110Z,0.30
2022-10-18T21:23:36.277Z,0.30
2022-10-18T21:26:03.772Z,0.30
2022-10-18T21:28:31.377Z,0.30
2022-10-18T21:31:08.175Z,0.20
2022-10-18T21:33:35.742Z,0.20
2022-10-18T21:36:03.256Z,0.20
2022-10-18T21:38:30.732Z,0.30
2022-10-18T21:40:59.801Z,0.30
2022-10-18T21:43:27.465Z,0.30
2022-10-18T21:45:58.997Z,0.30
2022-10-18T21:48:26.655Z,0.20
2022-10-18T21:50:54.165Z,0.30
2022-10-18T21:53:21.778Z,0.30
2022-10-18T21:55:49.258Z,0.30
2022-10-18T21:58:18.117Z,0.22
2022-10-18T22:00:49.944Z,0.30
2022-10-18T22:03:17.438Z,0.30
2022-10-18T22:05:44.875Z,0.30
2022-10-18T22:08:12.398Z,0.30
2022-10-18T22:10:39.950Z,0.20
2022-10-18T22:13:07.441Z,0.30
2022-10-18T22:18:08.692Z,0.30
2022-10-18T22:20:36.262Z,0.30
2022-10-18T22:23:03.690Z,0.30
2022-10-18T22:25:31.399Z,0.30
2022-10-18T22:27:58.814Z,0.30
2022-10-18T22:30:26.270Z,0.30
2022-10-18T22:32:55.052Z,0.30
2022-10-18T22:35:22.560Z,0.30
2022-10-18T22:37:50.026Z,0.30
2022-10-18T22:40:17.564Z,0.30
2022-10-18T22:42:45.108Z,0.30
2022-10-18T22:45:12.595Z,0.30
2022-10-18T22:47:40.016Z,0.28
2022-10-18T22:50:09.289Z,0.30
2022-10-18T22:52:36.863Z,0.30
2022-10-18T22:55:04.556Z,0.30
2022-10-18T22:57:32.048Z,0.30
2022-10-18T22:59:59.502Z,0.30
2022-10-18T23:02:26.970Z,0.30
2022-10-18T23:04:54.366Z,0.30
2022-10-18T23:07:23.180Z,0.30
2022-10-18T23:09:50.646Z,0.30
2022-10-18T23:12:18.156Z,0.30
2022-10-18T23:14:45.837Z,0.30
2022-10-18T23:17:13.252Z,0.30
2022-10-18T23:19:40.689Z,0.30
2022-10-18T23:22:08.095Z,0.30
2022-10-18T23:24:37.109Z,0.20
2022-10-18T23:27:04.651Z,0.30
2022-10-18T23:29:32.150Z,0.30
2022-10-18T23:31:59.630Z,0.30
2022-10-18T23:34:52.974Z,0.30
2022-10-18T23:37:22.754Z,0.30
2022-10-18T23:39:51.702Z,0.30
2022-10-18T23:42:19.227Z,0.30
2022-10-18T23:44:47.362Z,0.30
2022-10-18T23:47:15.446Z,0.30
2022-10-18T23:49:43.055Z,0.30
2022-10-18T23:52:10.523Z,0.30
2022-10-18T23:54:37.982Z,0.30
2022-10-18T23:57:06.806Z,0.30
2022-10-18T23:59:34.253Z,0.20
